Friday, September 19, 2014, 5:46 AM EDT
Back to Local

KCXY, Harrisburg Capital City

Location: New Cumberland, PA, United States Lat: 40.217
Local Time: 5:46 AM EDT ( 9:46 GMT) Lon: -76.85
Time Zone: US/Eastern Elev: 347 ft

Show me the last for .
Show Decoded

2014-09-19 04:56 METAR KCXY 190856Z AUTO 23003KT 10SM CLR 11/09 A3022 RMK AO2 SLP232 T01060089
                 53017 =
2014-09-19 03:56 METAR KCXY 190756Z AUTO 00000KT 10SM CLR 10/08 A3019 RMK AO2 SLP224 T01000083 =
2014-09-19 02:56 METAR KCXY 190656Z AUTO 00000KT 10SM CLR 11/09 A3018 RMK AO2 SLP219 T01110089 =
2014-09-19 01:56 METAR KCXY 190556Z AUTO 00000KT 10SM CLR 11/09 A3016 RMK AO2 SLP215 T01110094
                 10161 20111 53017 =
2014-09-18 23:56 METAR KCXY 190356Z AUTO 30004KT 10SM CLR 14/09 A3013 RMK AO2 SLP203 T01390094 =
2014-09-18 22:56 METAR KCXY 190256Z AUTO 27003KT 10SM CLR 13/09 A3011 RMK AO2 SLP198 T01280089
                 51020 =
2014-09-18 21:56 METAR KCXY 190156Z AUTO 23003KT 10SM CLR 13/09 A3010 RMK AO2 SLP194 T01280089 =
2014-09-18 20:56 METAR KCXY 190056Z AUTO 26004KT 10SM CLR 14/09 A3008 RMK AO2 SLP187 T01440094 =
2014-09-18 19:56 METAR KCXY 182356Z 23004KT 10SM CLR 16/10 A3005 RMK AO2 SLP178 T01610100 10244
                 20161 53011 =
2014-09-18 18:56 METAR KCXY 182256Z 36004KT 10SM CLR 22/07 A3004 RMK AO2 SLP171 T02220067 =
2014-09-18 17:56 METAR KCXY 182156Z 35005KT 10SM FEW065 23/07 A3003 RMK AO2 SLP168 T02280067 =
2014-09-18 16:56 METAR KCXY 182056Z 34009KT 10SM FEW077 24/06 A3002 RMK AO2 SLP166 T02390056
                 55000 =
2014-09-18 15:56 METAR KCXY 181956Z 33006KT 10SM FEW070 24/07 A3002 RMK AO2 SLP165 T02390067 =
2014-09-18 14:56 METAR KCXY 181856Z 34007KT 10SM SCT060 23/07 A3002 RMK AO2 SLP165 T02330072 =
2014-09-18 13:56 METAR KCXY 181756Z 32008KT 10SM CLR 23/06 A3002 RMK AO2 SLP166 T02330061 10233
                 20133 56006 =
2014-09-18 12:56 METAR KCXY 181656Z 33008KT 10SM CLR 23/06 A3003 RMK AO2 SLP168 T02280061 =
2014-09-18 11:56 METAR KCXY 181556Z 30005KT 10SM CLR 21/09 A3003 RMK AO2 SLP169 T02110094 =
2014-09-18 10:56 METAR KCXY 181456Z 32004KT 10SM OVC070 18/11 A3004 RMK AO2 SLP172 T01780106
                 53007 =
2014-09-18 08:56 METAR KCXY 181256Z 00000KT 10SM BKN065 15/11 A3002 RMK AO2 SLP167 T01500111 =
2014-09-18 07:56 METAR KCXY 181156Z 00000KT 10SM BKN050 13/11 A3002 RMK AO2 SLP166 T01280106
                 10128 20100 51010 =
2014-09-18 06:56 METAR KCXY 181056Z 00000KT 10SM SCT055 BKN080 12/10 A3001 RMK AO2 SLP162
                 T01170100 =
2014-09-18 05:56 METAR KCXY 180956Z AUTO 25004KT 10SM FEW065 OVC080 12/09 A3000 RMK AO2 SLP158
                 T01170094 =

Support USWX by starting your Amazon purchase here.